createdAt,value
2023-02-03T00:00:52.340Z,2.1
2023-02-03T00:02:08.632Z,2.2
2023-02-03T00:03:24.935Z,2.5
2023-02-03T00:04:41.224Z,1.6
2023-02-03T00:05:57.508Z,1.4
2023-02-03T00:07:13.798Z,1.8
2023-02-03T00:08:30.097Z,4.8
2023-02-03T00:09:46.395Z,0.9
2023-02-03T00:11:01.712Z,2
2023-02-03T00:12:17.997Z,4.1
2023-02-03T00:13:34.295Z,3.3
2023-02-03T00:14:50.581Z,2
2023-02-03T00:16:06.872Z,3.2
2023-02-03T00:17:23.176Z,3.8
2023-02-03T00:18:39.453Z,2.7
2023-02-03T00:19:55.762Z,2
2023-02-03T00:21:12.056Z,2.9
2023-02-03T00:22:28.338Z,2.5
2023-02-03T00:23:44.631Z,2.4
2023-02-03T00:25:00.932Z,2.1
2023-02-03T00:26:17.225Z,1.9
2023-02-03T00:27:32.527Z,2.2
2023-02-03T00:28:48.831Z,2.6
2023-02-03T00:30:05.115Z,1.4
2023-02-03T00:31:21.414Z,3.6
2023-02-03T00:32:37.711Z,4.1
2023-02-03T00:33:54.002Z,6
2023-02-03T00:35:10.299Z,0.5
2023-02-03T00:37:42.884Z,4.2
2023-02-03T00:38:59.164Z,2.3
2023-02-03T00:40:15.458Z,2.2
2023-02-03T00:41:31.745Z,1.1
2023-02-03T00:42:48.058Z,0.9
2023-02-03T00:44:03.349Z,3.3
2023-02-03T00:45:19.644Z,1.8
2023-02-03T00:46:35.946Z,2.8
2023-02-03T00:47:52.235Z,3
2023-02-03T00:49:08.529Z,1
2023-02-03T00:50:24.831Z,1.1
2023-02-03T00:51:41.108Z,0.6
2023-02-03T00:52:57.420Z,1.3
2023-02-03T00:54:13.706Z,1.8
2023-02-03T00:55:29.997Z,2.2
2023-02-03T00:56:46.286Z,1.7
2023-02-03T00:58:02.576Z,1.9
2023-02-03T00:59:18.870Z,1.2
2023-02-03T01:00:34.191Z,2.5
2023-02-03T01:01:50.488Z,3.1
2023-02-03T01:03:06.774Z,2.3
2023-02-03T01:04:23.068Z,1.9
2023-02-03T01:05:39.367Z,3.4
2023-02-03T01:06:55.642Z,0.6
2023-02-03T01:08:11.942Z,0.7
2023-02-03T01:09:28.238Z,0.8
2023-02-03T01:10:44.536Z,3.5
2023-02-03T01:12:00.823Z,2
2023-02-03T01:13:17.120Z,1.6
2023-02-03T01:14:33.411Z,1.7
2023-02-03T01:15:49.713Z,2.5
2023-02-03T01:17:05.011Z,1.7
2023-02-03T01:18:21.317Z,2.7
2023-02-03T01:19:37.611Z,2.9
2023-02-03T01:20:53.884Z,1.9
2023-02-03T01:22:10.000Z,2.3
2023-02-03T01:23:26.484Z,3.3
2023-02-03T01:24:42.775Z,2.1
2023-02-03T01:25:59.069Z,3.5
2023-02-03T01:28:31.647Z,2.8
2023-02-03T01:29:47.945Z,3.6
2023-02-03T01:31:04.250Z,3.3
2023-02-03T01:32:20.526Z,4
2023-02-03T01:33:35.838Z,2.2
2023-02-03T01:34:52.141Z,2
2023-02-03T01:36:08.427Z,4.5
2023-02-03T01:37:24.726Z,2.9
2023-02-03T01:38:41.021Z,4.7
2023-02-03T01:39:57.301Z,4.4
2023-02-03T01:41:13.605Z,4.1
2023-02-03T01:42:29.905Z,4.7
2023-02-03T01:43:46.180Z,3.8
2023-02-03T01:45:02.491Z,5.4
2023-02-03T01:46:18.765Z,4.4
2023-02-03T01:47:35.072Z,4
2023-02-03T01:48:51.359Z,7.1
2023-02-03T01:50:06.665Z,2.5
2023-02-03T01:51:22.971Z,2.2
2023-02-03T01:52:39.248Z,2.5
2023-02-03T01:53:55.560Z,3.9
2023-02-03T01:55:11.849Z,4.6
2023-02-03T01:56:28.128Z,4.5
2023-02-03T01:57:44.428Z,4.1
2023-02-03T01:59:00.727Z,2.7
2023-02-03T02:00:17.016Z,2.4
2023-02-03T02:01:33.316Z,1.9
2023-02-03T02:02:49.606Z,2.5
2023-02-03T02:04:05.890Z,5
2023-02-03T02:05:22.189Z,2.8
2023-02-03T02:06:37.496Z,5
2023-02-03T02:07:53.788Z,3.5
2023-02-03T02:09:10.078Z,4.1
2023-02-03T02:10:26.371Z,3
2023-02-03T02:11:42.681Z,2.7
2023-02-03T02:12:58.976Z,3.1
2023-02-03T02:14:15.267Z,2.5
2023-02-03T02:15:31.561Z,1.9
2023-02-03T02:16:47.848Z,1.6
2023-02-03T02:18:04.137Z,2.2
2023-02-03T02:19:20.439Z,3
2023-02-03T02:20:36.733Z,1.9
2023-02-03T02:21:53.009Z,2.1
2023-02-03T02:23:08.324Z,1.9
2023-02-03T02:24:24.630Z,2.3
2023-02-03T02:25:40.914Z,2.7
2023-02-03T02:26:57.202Z,3.9
2023-02-03T02:28:13.509Z,3.3
2023-02-03T02:29:29.792Z,2.9
2023-02-03T02:30:46.084Z,2.8
2023-02-03T02:32:02.383Z,4.7
2023-02-03T02:33:18.680Z,3.8
2023-02-03T02:34:34.977Z,2.9
2023-02-03T02:35:51.265Z,3
2023-02-03T02:37:07.546Z,3.4
2023-02-03T02:38:23.852Z,3.1
2023-02-03T02:39:39.160Z,3
2023-02-03T02:40:55.459Z,3.5
2023-02-03T02:42:11.741Z,4.3
2023-02-03T02:43:28.045Z,3.8
2023-02-03T02:44:44.327Z,4.9
2023-02-03T02:46:00.627Z,3.5
2023-02-03T02:47:16.906Z,4.5
2023-02-03T02:48:33.206Z,3.6
2023-02-03T02:49:49.511Z,4.7
2023-02-03T02:51:05.798Z,4.1
2023-02-03T02:52:22.086Z,4.3
2023-02-03T02:53:38.386Z,5
2023-02-03T02:56:10.961Z,5.4
2023-02-03T02:57:26.272Z,3.3
2023-02-03T02:58:42.566Z,3.6
2023-02-03T02:59:58.861Z,3
2023-02-03T03:01:15.154Z,3.6
2023-02-03T03:02:31.457Z,5
2023-02-03T03:03:47.734Z,4.7
2023-02-03T03:05:04.043Z,7.6
2023-02-03T03:06:20.335Z,3.5
2023-02-03T03:07:36.633Z,3.5
2023-02-03T03:08:52.910Z,4.6
2023-02-03T03:10:09.214Z,3.9
2023-02-03T03:11:25.494Z,4.8
2023-02-03T03:12:41.796Z,4.8
2023-02-03T03:13:57.115Z,5.9
2023-02-03T03:15:13.397Z,4.4
2023-02-03T03:16:29.688Z,5.8
2023-02-03T03:17:45.982Z,4
2023-02-03T03:19:02.276Z,4.1
2023-02-03T03:20:18.572Z,5.5
2023-02-03T03:21:34.865Z,5.1
2023-02-03T03:22:51.149Z,5
2023-02-03T03:24:07.444Z,5.1
2023-02-03T03:25:23.736Z,5.3
2023-02-03T03:26:40.048Z,6.6
2023-02-03T03:27:56.328Z,5.2
2023-02-03T03:29:12.620Z,5.2
2023-02-03T03:30:27.924Z,7.1
2023-02-03T03:31:44.230Z,5.2
2023-02-03T03:33:00.513Z,5.2
2023-02-03T03:34:16.815Z,8.1
2023-02-03T03:35:33.108Z,5.6
2023-02-03T03:36:48.430Z,6.1
2023-02-03T03:38:04.703Z,7.3
2023-02-03T03:39:21.010Z,6.1
2023-02-03T03:40:37.299Z,5.2
2023-02-03T03:41:53.600Z,5.6
2023-02-03T03:43:09.890Z,7
2023-02-03T03:44:26.179Z,5.7
2023-02-03T03:45:42.479Z,5.9
2023-02-03T03:46:58.763Z,5.8
2023-02-03T03:48:15.064Z,8
2023-02-03T03:49:31.345Z,8.4
2023-02-03T03:50:47.636Z,8
2023-02-03T03:52:03.930Z,6.7
2023-02-03T03:53:19.248Z,6.7
2023-02-03T03:54:35.539Z,7.4
2023-02-03T03:55:51.830Z,8
2023-02-03T03:57:08.126Z,5.6
2023-02-03T03:58:24.423Z,7.1
2023-02-03T03:59:40.712Z,9.2
2023-02-03T04:00:57.010Z,6.2
2023-02-03T04:02:13.291Z,7.8
2023-02-03T04:03:29.591Z,6.6
2023-02-03T04:04:45.877Z,6.7
2023-02-03T04:06:02.172Z,5.9
2023-02-03T04:07:18.480Z,6.7
2023-02-03T04:08:34.764Z,8.4
2023-02-03T04:09:50.078Z,5.4
2023-02-03T04:11:06.376Z,5.7
2023-02-03T04:12:22.670Z,7
2023-02-03T04:13:38.964Z,7
2023-02-03T04:14:55.256Z,7.5
2023-02-03T04:16:11.535Z,5.8
2023-02-03T04:17:27.840Z,8.5
2023-02-03T04:18:44.122Z,6.7
2023-02-03T04:20:00.426Z,7.3
2023-02-03T04:21:16.709Z,6.3
2023-02-03T04:22:32.998Z,7
2023-02-03T04:23:49.289Z,8.2
2023-02-03T04:25:05.583Z,6.6
2023-02-03T04:26:20.890Z,8.3
2023-02-03T04:27:37.185Z,8.2
2023-02-03T04:28:53.492Z,7.9
2023-02-03T04:30:09.782Z,7.9
2023-02-03T04:31:26.069Z,8
2023-02-03T04:32:42.370Z,5.7
2023-02-03T04:33:58.666Z,7.4
2023-02-03T04:35:14.960Z,7.3
2023-02-03T04:36:31.241Z,9
2023-02-03T04:37:47.547Z,7.6
2023-02-03T04:39:03.824Z,9.3
2023-02-03T04:40:20.118Z,7.4
2023-02-03T04:41:36.427Z,9.4
2023-02-03T04:42:51.719Z,7.5
2023-02-03T04:44:08.010Z,7.1
2023-02-03T04:45:24.323Z,7.3
2023-02-03T04:46:40.604Z,8.8
2023-02-03T04:47:56.900Z,9.7
2023-02-03T04:49:13.196Z,7.2
2023-02-03T04:50:29.495Z,6.8
2023-02-03T04:51:45.783Z,8.8
2023-02-03T04:53:02.070Z,7.5
2023-02-03T04:54:18.366Z,9.8
2023-02-03T04:55:34.651Z,7.3
2023-02-03T04:56:50.949Z,8.6
2023-02-03T04:58:07.244Z,8.6
2023-02-03T04:59:22.549Z,8.2
2023-02-03T05:00:38.842Z,6.7
2023-02-03T05:01:55.141Z,8.6
2023-02-03T05:03:11.426Z,9.2
2023-02-03T05:04:27.718Z,7.3
2023-02-03T05:05:44.012Z,10
2023-02-03T05:07:00.317Z,10.8
2023-02-03T05:08:16.609Z,8.5
2023-02-03T05:09:32.907Z,8.1
2023-02-03T05:10:49.193Z,8.7
2023-02-03T05:12:05.492Z,7
2023-02-03T05:13:21.771Z,7.6
2023-02-03T05:14:38.064Z,9.8
2023-02-03T05:15:53.372Z,7.4
2023-02-03T05:17:09.666Z,8
2023-02-03T05:18:25.969Z,7.5
2023-02-03T05:19:42.267Z,7.2
2023-02-03T05:20:58.541Z,6.9
2023-02-03T05:22:14.838Z,8.6
2023-02-03T05:23:31.131Z,11.3
2023-02-03T05:24:47.439Z,9.4
2023-02-03T05:26:03.732Z,7.3
2023-02-03T05:27:20.018Z,9
2023-02-03T05:28:36.314Z,6.9
2023-02-03T05:29:52.603Z,7.5
2023-02-03T05:31:08.885Z,8
2023-02-03T05:32:24.207Z,7.3
2023-02-03T05:33:40.503Z,6.7
2023-02-03T05:36:13.080Z,6.9
2023-02-03T05:37:29.384Z,9.6
2023-02-03T05:38:45.668Z,8
2023-02-03T05:40:01.956Z,5.7
2023-02-03T05:41:18.249Z,8.2
2023-02-03T05:42:34.548Z,7
2023-02-03T05:43:50.850Z,5.5
2023-02-03T05:45:07.136Z,5.2
2023-02-03T05:46:23.423Z,7.8
2023-02-03T05:47:39.713Z,6
2023-02-03T05:48:55.028Z,5.9
2023-02-03T05:50:11.316Z,6.9
2023-02-03T05:51:27.606Z,6.1
2023-02-03T05:52:43.917Z,5.2
2023-02-03T05:54:00.199Z,4.6
2023-02-03T05:55:16.496Z,4.3
2023-02-03T05:56:32.797Z,3.5
2023-02-03T05:57:49.088Z,5.2
2023-02-03T05:59:05.378Z,4.3
2023-02-03T06:00:21.677Z,6.2
2023-02-03T06:01:37.968Z,3.7
2023-02-03T06:02:54.247Z,5.7
2023-02-03T06:04:10.556Z,5.7
2023-02-03T06:05:25.863Z,5.6
2023-02-03T06:06:42.142Z,4.3
2023-02-03T06:07:58.448Z,4
2023-02-03T06:09:14.737Z,4.8
2023-02-03T06:10:31.029Z,6.8
2023-02-03T06:11:47.313Z,4.5
2023-02-03T06:13:03.619Z,4.9
2023-02-03T06:14:19.898Z,6.1
2023-02-03T06:15:36.190Z,7.3
2023-02-03T06:16:52.485Z,5.6
2023-02-03T06:18:08.775Z,6.9
2023-02-03T06:19:25.079Z,3.8
2023-02-03T06:20:41.376Z,7.7
2023-02-03T06:21:56.000Z,6.2
2023-02-03T06:23:12.967Z,5.4
2023-02-03T06:24:29.272Z,3.9
2023-02-03T06:25:45.560Z,5.7
2023-02-03T06:27:01.810Z,6.4
2023-02-03T06:28:18.041Z,6.5
2023-02-03T06:29:34.292Z,5.5
2023-02-03T06:30:50.525Z,5.3
2023-02-03T06:32:06.768Z,6.5
2023-02-03T06:33:23.004Z,5
2023-02-03T06:34:39.265Z,6.6
2023-02-03T06:35:55.498Z,6.2
2023-02-03T06:37:11.737Z,3.8
2023-02-03T06:38:26.987Z,5
2023-02-03T06:39:43.234Z,4.5
2023-02-03T06:40:59.471Z,4.4
2023-02-03T06:42:15.704Z,3.9
2023-02-03T06:43:31.955Z,3.3
2023-02-03T06:44:48.190Z,5.1
2023-02-03T06:46:04.418Z,4.4
2023-02-03T06:47:20.668Z,3.3
2023-02-03T06:48:36.912Z,4.5
2023-02-03T06:49:53.139Z,4.8
2023-02-03T06:51:09.382Z,4.9
2023-02-03T06:52:25.624Z,3.1
2023-02-03T06:53:41.849Z,6
2023-02-03T06:54:57.117Z,3.8
2023-02-03T06:56:13.357Z,6.5
2023-02-03T06:57:29.588Z,2.7
2023-02-03T06:58:45.841Z,3
2023-02-03T07:00:02.075Z,2.9
2023-02-03T07:01:18.315Z,4
2023-02-03T07:02:34.539Z,7.5
2023-02-03T07:03:50.781Z,6.4
2023-02-03T07:05:07.019Z,6.1
2023-02-03T07:06:23.263Z,3.6
2023-02-03T07:07:39.507Z,3.8
2023-02-03T07:08:55.735Z,5.1
2023-02-03T07:10:11.988Z,3
2023-02-03T07:11:27.242Z,3.9
2023-02-03T07:12:43.483Z,3.9
2023-02-03T07:13:59.713Z,3.7
2023-02-03T07:15:15.961Z,3.1
2023-02-03T07:16:32.197Z,2.4
2023-02-03T07:17:48.422Z,4.3
2023-02-03T07:19:04.669Z,2.6
2023-02-03T07:21:37.148Z,4.4
2023-02-03T07:22:53.377Z,3.1
2023-02-03T07:24:09.634Z,2.4
2023-02-03T07:25:25.863Z,3.4
2023-02-03T07:26:42.098Z,2.5
2023-02-03T07:27:57.354Z,3.3
2023-02-03T07:29:13.593Z,2.4
2023-02-03T07:30:29.838Z,3.9
2023-02-03T07:31:46.083Z,4.2
2023-02-03T07:33:02.321Z,2.5
2023-02-03T07:34:18.547Z,3.2
2023-02-03T07:35:34.785Z,4.7
2023-02-03T07:36:51.028Z,3.2
2023-02-03T07:38:07.279Z,3.7
2023-02-03T07:39:23.508Z,4.5
2023-02-03T07:40:39.746Z,5.3
2023-02-03T07:41:55.998Z,3.8
2023-02-03T07:43:12.239Z,3.4
2023-02-03T07:44:27.493Z,4.3
2023-02-03T07:45:43.730Z,4.1
2023-02-03T07:46:59.957Z,6.2
2023-02-03T07:48:16.193Z,3.2
2023-02-03T07:49:32.432Z,4.3
2023-02-03T07:50:48.687Z,5.1
2023-02-03T07:52:03.930Z,3.1
2023-02-03T07:53:20.177Z,5.9
2023-02-03T07:54:36.415Z,5.4
2023-02-03T07:55:52.666Z,4.3
2023-02-03T07:57:08.891Z,4.9
2023-02-03T07:58:25.138Z,4
2023-02-03T07:59:41.378Z,3.3
2023-02-03T08:00:57.621Z,2.6
2023-02-03T08:02:13.851Z,3.2
2023-02-03T08:03:30.083Z,4.7
2023-02-03T08:04:46.321Z,4.3
2023-02-03T08:06:02.565Z,6.1
2023-02-03T08:07:18.814Z,3.2
2023-02-03T08:08:34.068Z,5.6
2023-02-03T08:09:50.307Z,4.9
2023-02-03T08:11:06.536Z,3.6
2023-02-03T08:12:22.773Z,3.2
2023-02-03T08:13:39.015Z,5
2023-02-03T08:14:55.267Z,4
2023-02-03T08:16:11.495Z,3.8
2023-02-03T08:17:27.737Z,5.4
2023-02-03T08:18:43.976Z,3.2
2023-02-03T08:20:00.212Z,2.9
2023-02-03T08:21:16.456Z,5
2023-02-03T08:22:32.000Z,4.7
2023-02-03T08:23:48.936Z,10.2
2023-02-03T08:25:04.186Z,3.9
2023-02-03T08:26:20.417Z,3.2
2023-02-03T08:27:36.672Z,3.1
2023-02-03T08:28:52.909Z,4.5
2023-02-03T08:30:09.139Z,3.7
2023-02-03T08:31:25.379Z,3
2023-02-03T08:32:41.612Z,3.5
2023-02-03T08:33:57.867Z,3
2023-02-03T08:35:14.101Z,3.8
2023-02-03T08:36:30.328Z,3.3
2023-02-03T08:37:46.583Z,6.1
2023-02-03T08:39:02.819Z,4.3
2023-02-03T08:40:19.060Z,3.9
2023-02-03T08:41:34.310Z,3.3
2023-02-03T08:42:50.539Z,5.5
2023-02-03T08:44:06.782Z,4.3
2023-02-03T08:45:23.027Z,4.2
2023-02-03T08:46:39.254Z,2.9
2023-02-03T08:47:55.514Z,3.7
2023-02-03T08:49:11.749Z,4.8
2023-02-03T08:50:27.977Z,3.4
2023-02-03T08:51:44.218Z,4.6
2023-02-03T08:53:00.465Z,3
2023-02-03T08:54:16.693Z,3.1
2023-02-03T08:55:32.937Z,4
2023-02-03T08:56:49.171Z,5.3
2023-02-03T08:58:04.437Z,5.1
2023-02-03T08:59:20.670Z,4.4
2023-02-03T09:00:36.914Z,3.5
2023-02-03T09:01:53.148Z,2.4
2023-02-03T09:03:09.394Z,3.3
2023-02-03T09:04:25.618Z,3.1
2023-02-03T09:05:41.863Z,2.1
2023-02-03T09:06:58.105Z,4.3
2023-02-03T09:08:14.346Z,2.5
2023-02-03T09:09:30.583Z,2.8
2023-02-03T09:10:46.830Z,2.8
2023-02-03T09:12:03.073Z,6.4
2023-02-03T09:13:19.307Z,3.5
2023-02-03T09:14:34.561Z,3.9
2023-02-03T09:15:50.785Z,3.4
2023-02-03T09:17:07.037Z,2.2
2023-02-03T09:18:23.282Z,3.1
2023-02-03T09:19:39.516Z,6
2023-02-03T09:20:55.757Z,4
2023-02-03T09:22:11.993Z,3.8
2023-02-03T09:23:28.218Z,3.5
2023-02-03T09:24:44.461Z,6.1
2023-02-03T09:26:00.711Z,2.7
2023-02-03T09:27:16.944Z,3
2023-02-03T09:28:33.192Z,3.3
2023-02-03T09:29:49.416Z,3.6
2023-02-03T09:31:04.688Z,3.4
2023-02-03T09:32:20.921Z,3.4
2023-02-03T09:33:37.152Z,1.3
2023-02-03T09:34:53.397Z,2.8
2023-02-03T09:36:09.643Z,3.7
2023-02-03T09:37:25.871Z,1.8
2023-02-03T09:38:42.115Z,3
2023-02-03T09:39:58.352Z,4.8
2023-02-03T09:41:14.591Z,3.4
2023-02-03T09:42:30.833Z,4.2
2023-02-03T09:43:47.059Z,5
2023-02-03T09:45:03.309Z,3.5
2023-02-03T09:46:19.544Z,4.8
2023-02-03T09:47:34.805Z,2.7
2023-02-03T09:48:51.041Z,1.6
2023-02-03T09:50:07.282Z,3.4
2023-02-03T09:51:23.520Z,2.6
2023-02-03T09:52:39.756Z,3.8
2023-02-03T09:53:55.991Z,1.8
2023-02-03T09:55:12.238Z,4.5
2023-02-03T09:56:28.479Z,3.1
2023-02-03T09:57:44.716Z,2.7
2023-02-03T09:59:00.946Z,3.2
2023-02-03T10:00:17.190Z,3
2023-02-03T10:01:33.432Z,3.2
2023-02-03T10:02:49.659Z,4.4
2023-02-03T10:04:04.925Z,2.5
2023-02-03T10:05:21.158Z,2.2
2023-02-03T10:06:37.411Z,2.9
2023-02-03T10:07:53.633Z,2.3
2023-02-03T10:09:09.890Z,1.7
2023-02-03T10:10:26.110Z,3.2
2023-02-03T10:11:42.348Z,1
2023-02-03T10:12:58.600Z,5
2023-02-03T10:14:14.836Z,2.1
2023-02-03T10:15:31.080Z,1.5
2023-02-03T10:16:47.304Z,1.9
2023-02-03T10:18:03.552Z,1.9
2023-02-03T10:19:19.782Z,5.4
2023-02-03T10:20:35.043Z,4.1
2023-02-03T10:21:51.291Z,2.9
2023-02-03T10:23:07.524Z,1.7
2023-02-03T10:24:23.771Z,2.3
2023-02-03T10:25:40.002Z,3
2023-02-03T10:26:56.232Z,5.8
2023-02-03T10:28:12.482Z,1.5
2023-02-03T10:29:28.710Z,2.3
2023-02-03T10:30:44.949Z,2
2023-02-03T10:32:01.187Z,2.7
2023-02-03T10:33:17.430Z,2.5
2023-02-03T10:34:33.682Z,2
2023-02-03T10:35:49.925Z,4
2023-02-03T10:37:05.165Z,3.7
2023-02-03T10:38:21.415Z,1.6
2023-02-03T10:39:37.658Z,2.4
2023-02-03T10:40:53.878Z,3.7
2023-02-03T10:42:10.119Z,1.5
2023-02-03T10:43:26.374Z,1.6
2023-02-03T10:44:42.599Z,1.1
2023-02-03T10:45:58.841Z,1.9
2023-02-03T10:47:15.084Z,2.4
2023-02-03T10:48:31.325Z,2.1
2023-02-03T10:49:47.560Z,2.9
2023-02-03T10:51:03.808Z,1.9
2023-02-03T10:52:20.047Z,2.4
2023-02-03T10:53:35.301Z,3.9
2023-02-03T10:54:51.533Z,0.8
2023-02-03T10:56:07.763Z,1.1
2023-02-03T10:57:24.019Z,1.8
2023-02-03T10:58:40.250Z,1.5
2023-02-03T10:59:56.492Z,3.6
2023-02-03T11:01:12.719Z,1.9
2023-02-03T11:02:28.956Z,5.2
2023-02-03T11:03:45.201Z,3.4
2023-02-03T11:05:01.440Z,1
2023-02-03T11:06:17.682Z,2.7
2023-02-03T11:07:33.924Z,3.1
2023-02-03T11:08:50.166Z,1.7
2023-02-03T11:10:05.408Z,1.2
2023-02-03T11:11:21.648Z,1.9
2023-02-03T11:12:37.885Z,2.7
2023-02-03T11:13:54.130Z,3.4
2023-02-03T11:15:10.367Z,1.7
2023-02-03T11:16:26.612Z,1.9
2023-02-03T11:17:42.857Z,3.3
2023-02-03T11:18:59.087Z,1.6
2023-02-03T11:20:15.337Z,1.7
2023-02-03T11:21:31.574Z,1.2
2023-02-03T11:22:47.800Z,1.9
2023-02-03T11:24:04.041Z,1.5
2023-02-03T11:25:20.290Z,7.9
2023-02-03T11:26:35.547Z,4.3
2023-02-03T11:27:51.780Z,3.3
2023-02-03T11:29:08.010Z,3.2
2023-02-03T11:30:24.260Z,2.8
2023-02-03T11:31:40.485Z,2.7
2023-02-03T11:32:56.725Z,4.2
2023-02-03T11:34:12.972Z,6.9
2023-02-03T11:35:29.206Z,6.2
2023-02-03T11:36:45.440Z,2.8
2023-02-03T11:38:01.688Z,2.2
2023-02-03T11:39:17.920Z,1.8
2023-02-03T11:40:34.173Z,2.8
2023-02-03T11:41:50.408Z,4.9
2023-02-03T11:43:05.663Z,3.5
2023-02-03T11:44:21.900Z,2.7
2023-02-03T11:45:38.138Z,1.6
2023-02-03T11:46:54.367Z,2.5
2023-02-03T11:48:10.617Z,2.5
2023-02-03T11:49:26.845Z,2.6
2023-02-03T11:50:43.087Z,2.8
2023-02-03T11:51:59.338Z,2
2023-02-03T11:53:15.569Z,5.1
2023-02-03T11:54:31.800Z,2.6
2023-02-03T11:55:48.046Z,2.7
2023-02-03T11:57:04.289Z,4.5
2023-02-03T11:58:20.528Z,6.2
2023-02-03T11:59:35.787Z,3.1
2023-02-03T12:00:52.019Z,4.1
2023-02-03T12:02:08.253Z,2.9
2023-02-03T12:03:24.495Z,4.1
2023-02-03T12:04:40.735Z,3.6
2023-02-03T12:05:56.978Z,2.8
2023-02-03T12:07:12.236Z,1.5
2023-02-03T12:08:28.472Z,2.9
2023-02-03T12:09:44.705Z,2.6
2023-02-03T12:11:00.958Z,3.9
2023-02-03T12:12:17.191Z,1.7
2023-02-03T12:13:33.440Z,2.8
2023-02-03T12:14:49.680Z,3.4
2023-02-03T12:16:05.905Z,2
2023-02-03T12:17:22.151Z,1.5
2023-02-03T12:18:38.385Z,1
2023-02-03T12:19:54.624Z,1.3
2023-02-03T12:21:10.860Z,3.4
2023-02-03T12:22:27.107Z,1.8
2023-02-03T12:23:42.352Z,5.3
2023-02-03T12:24:58.608Z,1.6
2023-02-03T12:26:14.838Z,1.8
2023-02-03T12:27:31.083Z,1.1
2023-02-03T12:28:47.324Z,2.5
2023-02-03T12:30:03.558Z,1.5
2023-02-03T12:31:19.793Z,1.7
2023-02-03T12:32:36.040Z,1.6
2023-02-03T12:33:52.274Z,1.9
2023-02-03T12:35:08.510Z,1.7
2023-02-03T12:36:24.740Z,1
2023-02-03T12:37:40.992Z,1.8
2023-02-03T12:38:57.227Z,1.1
2023-02-03T12:40:12.472Z,2.3
2023-02-03T12:41:28.727Z,3.6
2023-02-03T12:42:44.959Z,2.6
2023-02-03T12:44:01.201Z,1.7
2023-02-03T12:45:17.443Z,1.1
2023-02-03T12:46:33.666Z,2.1
2023-02-03T12:47:49.916Z,1.1
2023-02-03T12:49:06.158Z,1.4
2023-02-03T12:50:22.389Z,3
2023-02-03T12:51:38.639Z,1.4
2023-02-03T12:52:54.879Z,1.1
2023-02-03T12:54:11.106Z,4.2
2023-02-03T12:55:27.343Z,7.8
2023-02-03T12:56:42.615Z,20.8
2023-02-03T12:57:58.834Z,11.4
2023-02-03T12:59:15.083Z,9.1
2023-02-03T13:00:31.319Z,9.4
2023-02-03T13:01:47.571Z,6.7
2023-02-03T13:03:03.798Z,15.4
2023-02-03T13:04:20.041Z,25.6
2023-02-03T13:05:36.272Z,21.3
2023-02-03T13:06:52.510Z,16.8
2023-02-03T13:08:08.756Z,44.9
2023-02-03T13:09:24.986Z,18.8
2023-02-03T13:10:41.237Z,10
2023-02-03T13:11:57.473Z,11
2023-02-03T13:13:12.727Z,1.7
2023-02-03T13:14:28.000Z,1.7
2023-02-03T13:15:45.206Z,3
2023-02-03T13:17:01.449Z,4.6
2023-02-03T13:18:17.684Z,6.5
2023-02-03T13:19:33.911Z,5.8
2023-02-03T13:20:50.150Z,1.8
2023-02-03T13:22:06.391Z,3.9
2023-02-03T13:23:22.641Z,2.7
2023-02-03T13:24:38.887Z,3.3
2023-02-03T13:25:55.109Z,6.5
2023-02-03T13:27:11.350Z,7.9
2023-02-03T13:28:27.592Z,6.1
2023-02-03T13:29:42.858Z,7.6
2023-02-03T13:30:59.093Z,5.3
2023-02-03T13:32:15.324Z,8.5
2023-02-03T13:33:31.555Z,3.5
2023-02-03T13:34:47.797Z,7.7
2023-02-03T13:36:04.049Z,4.3
2023-02-03T13:37:20.281Z,4
2023-02-03T13:38:36.519Z,4
2023-02-03T13:39:52.757Z,3.5
2023-02-03T13:41:08.999Z,5.2
2023-02-03T13:42:25.244Z,4.2
2023-02-03T13:43:41.474Z,9.2
2023-02-03T13:44:57.718Z,4.5
2023-02-03T13:46:12.977Z,5.6
2023-02-03T13:47:29.216Z,7.2
2023-02-03T13:48:45.455Z,5.7
2023-02-03T13:50:01.694Z,4.4
2023-02-03T13:51:17.933Z,6
2023-02-03T13:52:34.167Z,9.8
2023-02-03T13:53:50.404Z,7.2
2023-02-03T13:55:06.635Z,5.1
2023-02-03T13:56:22.886Z,6.4
2023-02-03T13:57:39.128Z,11
2023-02-03T13:58:55.361Z,8.1
2023-02-03T14:00:11.597Z,8.2
2023-02-03T14:01:27.832Z,11
2023-02-03T14:02:43.101Z,4.2
2023-02-03T14:03:59.322Z,10.6
2023-02-03T14:05:15.573Z,8
2023-02-03T14:06:31.808Z,7.3
2023-02-03T14:07:48.050Z,7
2023-02-03T14:09:04.283Z,7.8
2023-02-03T14:10:20.525Z,4.9
2023-02-03T14:11:36.758Z,6.2
2023-02-03T14:12:53.007Z,5.1
2023-02-03T14:14:09.235Z,5.4
2023-02-03T14:15:25.476Z,5.1
2023-02-03T14:16:41.723Z,8.5
2023-02-03T14:17:57.952Z,5.7
2023-02-03T14:19:13.205Z,4.3
2023-02-03T14:20:29.462Z,2.9
2023-02-03T14:21:45.685Z,6.1
2023-02-03T14:23:01.934Z,9.7
2023-02-03T14:24:18.180Z,3.5
2023-02-03T14:25:34.415Z,2.3
2023-02-03T14:26:50.650Z,5.5
2023-02-03T14:28:06.892Z,4.9
2023-02-03T14:29:23.132Z,3.4
2023-02-03T14:30:39.375Z,3.7
2023-02-03T14:31:55.601Z,6.3
2023-02-03T14:33:11.836Z,8.6
2023-02-03T14:34:28.086Z,3
2023-02-03T14:35:43.339Z,7.4
2023-02-03T14:36:59.583Z,5.8
2023-02-03T14:38:15.825Z,5.4
2023-02-03T14:39:32.043Z,7
2023-02-03T14:40:48.289Z,7.5
2023-02-03T14:42:04.539Z,3.4
2023-02-03T14:43:20.779Z,11.3
2023-02-03T14:44:37.012Z,6.5
2023-02-03T14:45:53.256Z,3.9
2023-02-03T14:47:09.477Z,8.1
2023-02-03T14:48:25.719Z,6.8
2023-02-03T14:49:41.975Z,7.6
2023-02-03T14:50:58.205Z,6.4
2023-02-03T14:52:13.463Z,4.5
2023-02-03T14:53:29.698Z,11.8
2023-02-03T14:54:45.933Z,5.3
2023-02-03T14:56:02.168Z,6.5
2023-02-03T14:57:18.417Z,11
2023-02-03T14:58:34.664Z,10.2
2023-02-03T14:59:50.903Z,10.5
2023-02-03T15:01:07.124Z,7
2023-02-03T15:02:23.365Z,8.3
2023-02-03T15:03:39.605Z,10.3
2023-02-03T15:04:55.852Z,4.7
2023-02-03T15:06:12.089Z,8.1
2023-02-03T15:07:28.335Z,7.6
2023-02-03T15:08:43.588Z,5.1
2023-02-03T15:09:59.812Z,9.1
2023-02-03T15:11:16.071Z,6.8
2023-02-03T15:12:32.310Z,11.4
2023-02-03T15:13:48.544Z,9.5
2023-02-03T15:15:04.783Z,8.5
2023-02-03T15:16:21.010Z,7.8
2023-02-03T15:17:37.250Z,5.6
2023-02-03T15:18:53.501Z,8.6
2023-02-03T15:20:09.739Z,8.5
2023-02-03T15:21:25.977Z,11.3
2023-02-03T15:22:42.206Z,10.4
2023-02-03T15:23:58.453Z,9
2023-02-03T15:25:13.714Z,10.8
2023-02-03T15:26:29.943Z,9.5
2023-02-03T15:27:46.189Z,17
2023-02-03T15:29:02.427Z,8.8
2023-02-03T15:30:18.672Z,11.8
2023-02-03T15:31:34.906Z,10
2023-02-03T15:32:51.151Z,9.7
2023-02-03T15:34:07.379Z,10
2023-02-03T15:35:23.616Z,10.3
2023-02-03T15:36:39.857Z,5.7
2023-02-03T15:37:56.100Z,11.7
2023-02-03T15:39:12.334Z,13.2
2023-02-03T15:40:28.574Z,9.4
2023-02-03T15:41:43.834Z,9.4
2023-02-03T15:43:00.073Z,11.9
2023-02-03T15:44:16.305Z,6
2023-02-03T15:45:32.549Z,8.3
2023-02-03T15:46:48.787Z,12.7
2023-02-03T15:48:05.039Z,7.6
2023-02-03T15:49:21.262Z,9.4
2023-02-03T15:50:37.516Z,5.8
2023-02-03T15:51:53.750Z,11.4
2023-02-03T15:53:09.995Z,9.8
2023-02-03T15:54:26.218Z,14.9
2023-02-03T15:55:42.465Z,15.2
2023-02-03T15:56:58.709Z,12.7
2023-02-03T15:58:13.964Z,14
2023-02-03T15:59:30.199Z,13.4
2023-02-03T16:00:46.437Z,13.2
2023-02-03T16:02:02.670Z,13.3
2023-02-03T16:03:18.905Z,10.2
2023-02-03T16:04:35.155Z,8.8
2023-02-03T16:05:51.387Z,13.3
2023-02-03T16:07:07.635Z,6.7
2023-02-03T16:08:23.866Z,12.4
2023-02-03T16:09:40.111Z,16.2
2023-02-03T16:10:56.352Z,8.9
2023-02-03T16:12:12.554Z,7.7
2023-02-03T16:13:28.788Z,5.7
2023-02-03T16:14:44.056Z,8.3
2023-02-03T16:16:00.286Z,12.1
2023-02-03T16:17:16.538Z,9.5
2023-02-03T16:18:32.777Z,14
2023-02-03T16:19:49.014Z,11.6
2023-02-03T16:21:05.251Z,9.8
2023-02-03T16:22:20.555Z,8.5
2023-02-03T16:23:36.855Z,13.1
2023-02-03T16:24:53.157Z,11.3
2023-02-03T16:26:09.445Z,9.8
2023-02-03T16:27:25.735Z,8.1
2023-02-03T16:28:42.028Z,9.1
2023-02-03T16:29:58.313Z,8.1
2023-02-03T16:31:14.606Z,12.5
2023-02-03T16:32:30.903Z,10.7
2023-02-03T16:33:47.204Z,13.8
2023-02-03T16:35:03.486Z,16.3
2023-02-03T16:36:19.784Z,6.9
2023-02-03T16:37:36.085Z,13.4
2023-02-03T16:38:51.383Z,21.6
2023-02-03T16:40:07.000Z,12.2
2023-02-03T16:41:23.976Z,8.4
2023-02-03T16:42:40.269Z,19.9
2023-02-03T16:43:56.562Z,32
2023-02-03T16:45:12.851Z,52
2023-02-03T16:46:29.151Z,8.3
2023-02-03T16:47:45.428Z,11.3
2023-02-03T16:49:01.740Z,10.3
2023-02-03T16:50:18.030Z,11.1
2023-02-03T16:51:34.316Z,10.8
2023-02-03T16:52:50.613Z,12
2023-02-03T16:54:06.898Z,19.5
2023-02-03T16:55:22.218Z,11.3
2023-02-03T16:56:38.514Z,9.3
2023-02-03T16:57:54.798Z,7.9
2023-02-03T16:59:11.082Z,10.7
2023-02-03T17:00:27.391Z,10.3
2023-02-03T17:01:43.672Z,6.8
2023-02-03T17:02:59.970Z,9.2
2023-02-03T17:04:16.271Z,5.7
2023-02-03T17:05:32.560Z,12.9
2023-02-03T17:06:48.855Z,8.3
2023-02-03T17:08:05.136Z,8.8
2023-02-03T17:09:21.442Z,10.9
2023-02-03T17:10:37.736Z,7
2023-02-03T17:11:53.040Z,10.3
2023-02-03T17:13:09.327Z,9.8
2023-02-03T17:14:25.624Z,14.7
2023-02-03T17:15:41.925Z,9.8
2023-02-03T17:16:58.214Z,11.6
2023-02-03T17:18:14.498Z,10.6
2023-02-03T17:19:30.798Z,7.4
2023-02-03T17:20:47.095Z,11.6
2023-02-03T17:22:03.370Z,9.4
2023-02-03T17:23:19.680Z,10.3
2023-02-03T17:24:35.977Z,12.5
2023-02-03T17:25:52.257Z,15.5
2023-02-03T17:27:08.563Z,7.1
2023-02-03T17:28:23.861Z,11.8
2023-02-03T17:29:40.152Z,14.7
2023-02-03T17:30:56.444Z,13.5
2023-02-03T17:32:12.747Z,14.3
2023-02-03T17:33:29.036Z,12.3
2023-02-03T17:34:45.315Z,10.1
2023-02-03T17:36:01.621Z,7.3
2023-02-03T17:37:17.916Z,13.2
2023-02-03T17:38:34.205Z,13.3
2023-02-03T17:53:48.727Z,11.9